Time;durP1;ratioP1;P1;durP2;ratioP2;P2;SDS_P1;SDS_P2;PMS_P1;PMS_P2;Temp;Humidity;BMP_temperature;BMP_pressure;BME280_temperature;BME280_humidity;BME280_pressure;Samples;Min_cycle;Max_cycle;Signal;HPM_P1;HPM_P2
2021/11/11 00:00:37;;;;;;;28.55;19.67;;;;;;;2.61;80.22;100604.09;1087517;54;20882;-79
2021/11/11 00:01:40;;;;;;;26.52;18.10;;;;;;;2.64;80.18;100598.66;1087988;54;20011;-83
2021/11/11 00:02:45;;;;;;;25.88;19.00;;;;;;;2.58;80.38;100603.41;1088132;54;20624;-80
2021/11/11 00:03:47;;;;;;;28.17;18.90;;;;;;;2.56;80.35;100606.09;1088275;54;20018;-83
2021/11/11 00:04:56;;;;;;;26.35;18.45;;;;;;;2.57;80.57;100606.97;1088468;54;20014;-82
2021/11/11 00:06:01;;;;;;;27.05;18.30;;;;;;;2.60;80.47;100605.03;1088482;54;20057;-83
2021/11/11 00:07:05;;;;;;;36.55;20.42;;;;;;;2.61;80.31;100598.81;1088244;54;20059;-83
2021/11/11 00:08:11;;;;;;;28.83;18.90;;;;;;;2.60;80.62;100594.47;1088197;54;20032;-82
2021/11/11 00:09:14;;;;;;;26.88;17.67;;;;;;;2.58;80.48;100598.97;1088061;54;20083;-81
2021/11/11 00:10:19;;;;;;;25.08;18.75;;;;;;;2.56;80.69;100606.09;1088158;54;20026;-83
2021/11/11 00:11:24;;;;;;;27.85;18.45;;;;;;;2.55;80.71;100604.38;1088176;54;20039;-80
2021/11/11 00:12:31;;;;;;;25.35;17.90;;;;;;;2.52;80.87;100588.72;1088058;54;20034;-80
2021/11/11 00:13:36;;;;;;;23.45;17.45;;;;;;;2.62;80.42;100595.25;1087980;54;20035;-82
2021/11/11 00:14:38;;;;;;;23.52;17.25;;;;;;;2.64;80.13;100589.88;1089031;39;20939;-84
2021/11/11 00:15:50;;;;;;;24.70;18.35;;;;;;;2.65;80.46;100588.94;1088151;54;20031;-83
2021/11/11 00:16:52;;;;;;;26.10;17.45;;;;;;;2.64;80.40;100589.88;1090946;39;20478;-80
2021/11/11 00:17:57;;;;;;;26.13;18.48;;;;;;;2.60;80.59;100591.81;1087937;54;20061;-83
2021/11/11 00:18:58;;;;;;;26.33;17.67;;;;;;;2.64;80.51;100592.50;1087958;54;20022;-81
2021/11/11 00:20:05;;;;;;;23.55;18.98;;;;;;;2.65;80.46;100581.84;1087965;54;20042;-82
2021/11/11 00:21:11;;;;;;;24.02;16.13;;;;;;;2.69;80.00;100584.34;1087959;54;20042;-82
2021/11/11 00:22:13;;;;;;;26.98;17.92;;;;;;;2.73;79.92;100585.91;1088166;54;20019;-81
2021/11/11 00:23:18;;;;;;;26.75;18.48;;;;;;;2.71;80.05;100585.13;1088122;54;20046;-83
2021/11/11 00:24:20;;;;;;;25.75;18.30;;;;;;;2.64;80.29;100600.44;1092593;39;20402;-80
2021/11/11 00:25:33;;;;;;;26.00;18.40;;;;;;;2.61;nan;100587.38;1087979;54;20035;-83
2021/11/11 00:26:38;;;;;;;24.48;17.13;;;;;;;2.64;80.30;100589.88;1088108;54;20670;-83
2021/11/11 00:27:47;;;;;;;27.10;17.73;;;;;;;2.69;80.23;100590.50;1088083;54;20030;-83
2021/11/11 00:28:52;;;;;;;23.90;16.80;;;;;;;2.74;80.00;100592.91;1087922;54;20034;-80
2021/11/11 00:30:10;;;;;;;22.75;16.33;;;;;;;2.71;80.09;100587.75;1088059;54;20050;-79
2021/11/11 00:31:17;;;;;;;24.73;16.60;;;;;;;2.64;80.05;100590.75;1088068;54;20039;-82
2021/11/11 00:32:18;;;;;;;26.90;18.00;;;;;;;2.56;80.38;100595.53;1088056;54;20044;-79
2021/11/11 00:33:25;;;;;;;23.73;18.05;;;;;;;2.53;80.43;100587.81;1088109;54;20086;-80
2021/11/11 00:34:26;;;;;;;24.95;17.05;;;;;;;2.55;80.61;100591.19;1088010;54;20045;-82
2021/11/11 00:35:33;;;;;;;26.40;18.23;;;;;;;2.52;80.45;100588.72;1088145;54;20094;-83
2021/11/11 00:36:34;;;;;;;24.45;17.33;;;;;;;2.56;80.36;100590.25;1089255;39;20463;-81
2021/11/11 00:37:40;;;;;;;24.33;17.98;;;;;;;2.57;80.20;100604.31;1088056;54;20030;-82
2021/11/11 00:38:46;;;;;;;24.73;17.67;;;;;;;2.54;80.24;100601.84;1088058;54;20037;-80
2021/11/11 00:39:48;;;;;;;25.25;17.73;;;;;;;2.54;80.26;100601.84;1088087;54;20038;-79
2021/11/11 00:41:00;;;;;;;26.65;17.75;;;;;;;2.49;80.15;100597.66;1088072;54;20090;-83
2021/11/11 00:42:01;;;;;;;25.13;17.90;;;;;;;2.56;80.07;100595.53;1087984;54;20043;-81
2021/11/11 00:43:09;;;;;;;25.27;18.17;;;;;;;2.54;80.10;100593.91;1088031;54;20082;-82
2021/11/11 00:44:10;;;;;;;23.55;16.75;;;;;;;2.53;80.07;100593.06;1088050;54;20029;-80
2021/11/11 00:45:21;;;;;;;23.80;16.60;;;;;;;2.57;79.91;100594.59;1087858;54;20034;-82
2021/11/11 00:46:27;;;;;;;24.83;16.55;;;;;;;2.57;79.75;100575.28;1087982;54;20034;-77
2021/11/11 00:47:42;;;;;;;23.30;17.50;;;;;;;2.52;80.21;100591.38;1087912;54;20018;-80
2021/11/11 00:48:47;;;;;;;24.48;17.02;;;;;;;2.47;80.00;100580.19;1092011;47;20061;-81
2021/11/11 00:49:50;;;;;;;26.08;16.98;;;;;;;2.43;80.13;100583.94;1088030;54;20030;-82
2021/11/11 00:50:55;;;;;;;26.33;17.95;;;;;;;2.45;80.13;100588.19;1087987;54;20108;-82
2021/11/11 00:51:58;;;;;;;21.27;15.57;;;;;;;2.50;79.92;100582.66;1087965;54;20078;-83
2021/11/11 00:53:05;;;;;;;25.05;16.60;;;;;;;2.51;79.57;100581.75;1088025;54;20592;-83
2021/11/11 00:54:07;;;;;;;21.73;16.20;;;;;;;2.48;79.73;100582.75;1088075;54;20026;-82
